GCXO Airport Information

Runway Information
Runway 12 Length 11155 ft width 148 ft
Elevation 2060 ft Threshold ft Heading 111
Runway 30 Length 11155 ft Width 148 ft
Elevation 2002 ft Threshold ft Heading 291
Airport Frequencies
Type APP Name APP Frequency 119.7 MHZ
Type ATIS Name ATIS Frequency 118.575 MHZ
Type GND Name GND Frequency 121.7 MHZ
Type TWR Name TWR Frequency 118.7 MHZ
Airport Navaids
Type VOR-DME Name Tenerife Norte Frequency 117700 KHZ
Type NDB Name Tenerife Norte Frequency 410 KHZ
Airport Weather Information & NOTAM
ADDS - METARS form results

(0538 UTC 03 December 2022)
Data provider http://aviationweather.gov/metar/data/
 
METAR text: GCXO 030530Z AUTO 30010KT 270V330 7000 2200SE -RA VV002 15/14 Q1012
Conditions at: GCXO (TENERIFE/LOS ROD, ES) observed 0530 UTC 03 December 2022
Temperature: 15.0°C (59°F)
Dewpoint: 14.0°C (57°F) [RH = 94%]
Pressure (altimeter): 29.88 inches Hg (1012.0 mb)
Winds: from the WNW (300 degrees) at 12 MPH (10 knots; 5.1 m/s)
Visibility: 4 miles ( 7 km)
Ceiling: indefinite ceiling with vertical visibility of 200 feet AGL
Clouds: obscured sky
Weather: -RA  (light rain)

METAR text: GCXO 030500Z AUTO 30008KT 270V360 2800 -RA BR BKN006 BKN011 OVC033 15/14 Q1012
Conditions at: GCXO (TENERIFE/LOS ROD, ES) observed 0500 UTC 03 December 2022
Temperature: 15.0°C (59°F)
Dewpoint: 14.0°C (57°F) [RH = 94%]
Pressure (altimeter): 29.88 inches Hg (1012.0 mb)
Winds: from the WNW (300 degrees) at 9 MPH (8 knots; 4.1 m/s)
Visibility: 1.74 miles (2.80 km)
Ceiling: 600 feet AGL
Clouds: broken clouds at 600 feet AGL
broken clouds at 1100 feet AGL
overcast cloud deck at 3300 feet AGL
Weather: -RA BR  (light rain, mist)

Forecast for: GCXO (TENERIFE/LOS ROD, ES)
Text: TAF GCXO 030200Z 0303/0403 31013KT 9999 SCT015 TX18/0314Z TN12/0306Z
Forecast period: 0300 UTC 03 December 2022 to 0300 UTC 04 December 2022
Forecast type: FROM: standard forecast or significant change
Winds: from the NW (310 degrees) at 15 MPH (13 knots; 6.7 m/s)
Visibility: 6 or more miles (10+ km)
Ceiling: at least 12,000 feet AGL
Clouds: scattered clouds at 1500 feet AGL
Weather: no significant weather forecast for this period
Text: PROB40
Forecast period: 0300 UTC 03 December 2022 to 0000 UTC 04 December 2022
Forecast type: TEMPORARY: The following changes expected for less than half the time period
Visibility: 2.80 miles (4.51 km)
Ceiling: 1000 feet AGL
Clouds: broken clouds at 1000 feet AGL
Weather: DZ  (moderate drizzle)
Text: TEMPO 0303/0324 4500 DZ BKN010
Forecast period: 0300 to 1200 UTC 03 December 2022
Forecast type: TEMPORARY: The following changes expected for less than half the time period
Visibility: 0.62 miles (1.00 km)
Ceiling: 500 feet AGL
Clouds: broken clouds at 500 feet AGL
Weather: RA BCFG  (moderate rain, patches of fog)